createdAt,value
2019-04-22T00:00:00.990Z,5.73
2019-04-22T00:02:40.093Z,5.60
2019-04-22T00:05:14.299Z,6.13
2019-04-22T00:08:04.658Z,5.50
2019-04-22T00:10:33.166Z,6.20
2019-04-22T00:13:14.931Z,5.83
2019-04-22T00:15:34.011Z,7.10
2019-04-22T00:18:16.561Z,6.40
2019-04-22T00:20:47.115Z,6.07
2019-04-22T00:23:13.239Z,6.43
2019-04-22T00:25:42.143Z,7.07
2019-04-22T00:28:20.062Z,7.17
2019-04-22T00:30:47.095Z,7.20
2019-04-22T00:33:20.527Z,7.43
2019-04-22T00:35:56.771Z,7.23
2019-04-22T00:41:01.032Z,7.77
2019-04-22T00:43:32.988Z,7.77
2019-04-22T00:45:57.850Z,8.30
2019-04-22T00:48:57.940Z,8.00
2019-04-22T00:51:05.805Z,7.87
2019-04-22T00:53:35.449Z,7.80
2019-04-22T01:01:19.100Z,7.67
2019-04-22T01:03:55.869Z,8.60
2019-04-22T01:06:20.376Z,8.30
2019-04-22T01:11:33.537Z,8.03
2019-04-22T01:13:55.849Z,7.77
2019-04-22T01:18:53.826Z,7.80
2019-04-22T01:21:36.896Z,6.77
2019-04-22T01:23:58.043Z,7.17
2019-04-22T01:26:33.077Z,7.07
2019-04-22T01:28:59.275Z,6.70
2019-04-22T01:31:20.478Z,6.87
2019-04-22T01:34:04.339Z,6.73
2019-04-22T01:36:36.470Z,6.30
2019-04-22T01:39:18.698Z,5.97
2019-04-22T01:41:55.563Z,6.63
2019-04-22T01:44:22.622Z,5.90
2019-04-22T01:46:50.825Z,6.40
2019-04-22T01:49:21.351Z,6.37
2019-04-22T01:51:58.390Z,5.90
2019-04-22T01:54:29.803Z,5.77
2019-04-22T01:57:01.585Z,5.93
2019-04-22T01:59:19.869Z,6.47
2019-04-22T02:02:02.960Z,6.50
2019-04-22T02:04:38.206Z,5.93
2019-04-22T02:07:01.924Z,6.40
2019-04-22T02:09:38.657Z,6.20
2019-04-22T02:12:06.426Z,6.33
2019-04-22T02:14:39.347Z,5.73
2019-04-22T02:17:14.532Z,6.10
2019-04-22T02:19:45.531Z,6.70
2019-04-22T02:22:27.581Z,6.37
2019-04-22T02:24:43.904Z,6.90
2019-04-22T02:27:17.498Z,6.93
2019-04-22T02:29:47.368Z,8.00
2019-04-22T02:35:01.216Z,6.80
2019-04-22T02:37:26.443Z,7.07
2019-04-22T02:39:58.091Z,7.40
2019-04-22T02:42:23.577Z,7.10
2019-04-22T02:44:53.109Z,6.60
2019-04-22T02:50:07.024Z,6.87
2019-04-22T02:52:41.077Z,6.60
2019-04-22T02:57:39.290Z,6.73
2019-04-22T03:00:18.192Z,7.20
2019-04-22T03:05:24.090Z,7.43
2019-04-22T03:07:48.996Z,7.63
2019-04-22T03:10:22.688Z,7.50
2019-04-22T03:12:41.334Z,8.10
2019-04-22T03:15:30.512Z,7.77
2019-04-22T03:17:43.638Z,7.70
2019-04-22T03:23:01.762Z,8.00
2019-04-22T03:25:55.538Z,7.67
2019-04-22T03:27:48.293Z,7.77
2019-04-22T03:33:11.212Z,7.60
2019-04-22T03:36:36.434Z,7.67
2019-04-22T03:43:20.955Z,7.10
2019-04-22T03:50:29.631Z,7.33
2019-04-22T03:53:09.762Z,8.17
2019-04-22T03:55:41.229Z,8.60
2019-04-22T03:58:21.432Z,8.77
2019-04-22T04:00:55.548Z,9.10
2019-04-22T04:16:26.746Z,8.90
2019-04-22T04:19:02.586Z,8.27
2019-04-22T04:24:24.115Z,10.83
2019-04-22T04:26:42.550Z,10.97
2019-04-22T04:29:05.913Z,8.70
2019-04-22T04:31:33.315Z,7.27
2019-04-22T04:36:38.869Z,8.60
2019-04-22T04:39:00.582Z,8.47
2019-04-22T04:41:42.899Z,8.20
2019-04-22T04:56:40.588Z,7.97
2019-04-22T04:59:30.384Z,8.80
2019-04-22T05:01:45.119Z,9.70
2019-04-22T05:04:25.919Z,10.00
2019-04-22T05:06:51.802Z,9.90
2019-04-22T05:09:21.456Z,10.30
2019-04-22T05:14:19.253Z,9.23
2019-04-22T05:16:54.764Z,10.13
2019-04-22T05:19:22.637Z,9.83
2019-04-22T05:21:54.499Z,9.63
2019-04-22T05:24:24.302Z,10.00
2019-04-22T05:26:57.043Z,9.83
2019-04-22T05:29:35.109Z,9.87
2019-04-22T05:34:28.114Z,9.93
2019-04-22T05:36:52.812Z,10.07
2019-04-22T05:39:24.613Z,10.57
2019-04-22T05:42:03.199Z,11.50
2019-04-22T05:44:29.399Z,11.57
2019-04-22T05:47:04.733Z,10.97
2019-04-22T05:49:31.165Z,11.03
2019-04-22T05:52:02.854Z,11.80
2019-04-22T05:54:34.695Z,10.73
2019-04-22T05:57:12.955Z,11.83
2019-04-22T05:59:39.603Z,10.97
2019-04-22T06:02:13.576Z,10.57
2019-04-22T06:04:49.396Z,10.90
2019-04-22T06:07:13.629Z,11.30
2019-04-22T06:09:41.111Z,9.63
2019-04-22T06:12:12.312Z,10.83
2019-04-22T06:14:54.345Z,9.90
2019-04-22T06:17:32.087Z,8.73
2019-04-22T06:19:57.594Z,10.40
2019-04-22T06:22:41.324Z,9.93
2019-04-22T06:25:01.127Z,9.17
2019-04-22T06:27:33.027Z,8.50
2019-04-22T06:30:07.982Z,9.23
2019-04-22T06:32:32.497Z,9.20
2019-04-22T06:35:19.802Z,10.60
2019-04-22T06:37:45.930Z,11.30
2019-04-22T06:40:13.043Z,10.57
2019-04-22T06:42:48.985Z,9.43
2019-04-22T06:50:16.608Z,10.37
2019-04-22T06:52:51.962Z,8.97
2019-04-22T06:55:21.241Z,9.03
2019-04-22T06:57:55.076Z,9.70
2019-04-22T07:00:24.500Z,9.37
2019-04-22T07:05:27.548Z,9.60
2019-04-22T07:08:04.386Z,9.80
2019-04-22T07:13:00.947Z,9.70
2019-04-22T07:18:03.035Z,9.20
2019-04-22T07:20:42.017Z,9.20
2019-04-22T07:23:07.980Z,9.23
2019-04-22T07:25:34.910Z,9.30
2019-04-22T07:28:14.252Z,9.27
2019-04-22T07:30:41.020Z,9.37
2019-04-22T07:38:18.687Z,11.27
2019-04-22T07:45:51.923Z,10.60
2019-04-22T07:48:33.951Z,10.43
2019-04-22T07:53:22.996Z,10.57
2019-04-22T07:56:01.386Z,10.07
2019-04-22T08:01:07.209Z,9.07
2019-04-22T08:03:38.105Z,9.47
2019-04-22T08:08:29.098Z,9.07
2019-04-22T08:11:10.349Z,8.63
2019-04-22T08:13:38.563Z,8.93
2019-04-22T08:18:55.805Z,9.10
2019-04-22T08:21:09.101Z,9.87
2019-04-22T08:23:41.720Z,8.80
2019-04-22T08:26:11.190Z,10.00
2019-04-22T08:28:46.523Z,8.93
2019-04-22T08:31:18.765Z,9.70
2019-04-22T08:33:46.916Z,8.93
2019-04-22T08:36:24.078Z,9.63
2019-04-22T08:38:55.921Z,8.97
2019-04-22T08:56:37.695Z,8.10
2019-04-22T08:59:11.051Z,7.90
2019-04-22T09:02:04.870Z,7.70
2019-04-22T09:07:06.117Z,7.77
2019-04-22T09:11:48.499Z,7.77
2019-04-22T09:14:15.693Z,8.20
2019-04-22T09:16:42.736Z,8.43
2019-04-22T09:19:17.830Z,8.33
2019-04-22T09:21:56.018Z,9.27
2019-04-22T09:24:16.802Z,9.00
2019-04-22T09:26:54.483Z,9.33
2019-04-22T09:29:29.440Z,9.07
2019-04-22T09:32:00.416Z,8.80
2019-04-22T09:34:32.092Z,8.73
2019-04-22T09:37:05.995Z,8.20
2019-04-22T09:39:29.480Z,7.90
2019-04-22T09:42:03.014Z,8.30
2019-04-22T09:44:34.620Z,7.90
2019-04-22T09:47:00.012Z,7.93
2019-04-22T09:49:37.086Z,8.37
2019-04-22T09:52:02.935Z,7.97
2019-04-22T09:54:49.621Z,8.33
2019-04-22T09:57:09.520Z,7.70
2019-04-22T09:59:44.057Z,8.30
2019-04-22T10:04:46.651Z,8.20
2019-04-22T10:07:19.817Z,7.77
2019-04-22T10:12:19.301Z,9.77
2019-04-22T10:14:49.706Z,7.97
2019-04-22T10:17:17.304Z,8.70
2019-04-22T10:20:07.116Z,8.03
2019-04-22T10:22:27.582Z,7.43
2019-04-22T10:24:53.216Z,7.03
2019-04-22T10:27:26.282Z,8.10
2019-04-22T10:30:00.209Z,7.13
2019-04-22T10:32:33.584Z,6.73
2019-04-22T10:34:57.231Z,6.97
2019-04-22T10:37:22.399Z,6.97
2019-04-22T10:39:57.504Z,7.00
2019-04-22T10:42:25.217Z,6.50
2019-04-22T10:44:57.271Z,7.53
2019-04-22T10:47:27.991Z,6.90
2019-04-22T10:49:58.295Z,7.10
2019-04-22T10:52:28.001Z,7.50
2019-04-22T10:54:58.990Z,7.17
2019-04-22T10:57:29.774Z,7.20
2019-04-22T11:00:00.935Z,7.10
2019-04-22T11:02:31.782Z,6.87
2019-04-22T11:05:02.059Z,7.43
2019-04-22T11:07:39.736Z,7.03
2019-04-22T11:10:20.475Z,6.67
2019-04-22T11:12:36.176Z,6.77
2019-04-22T11:15:09.747Z,6.53
2019-04-22T11:17:41.885Z,6.30
2019-04-22T11:20:13.483Z,6.30
2019-04-22T11:22:44.556Z,11.10
2019-04-22T11:25:16.045Z,14.10
2019-04-22T11:27:47.210Z,22.77
2019-04-22T11:30:21.989Z,33.50
2019-04-22T11:32:51.880Z,7.87
2019-04-22T11:35:21.968Z,7.07
2019-04-22T11:37:52.726Z,7.87
2019-04-22T11:40:28.782Z,8.20
2019-04-22T11:42:54.651Z,7.70
2019-04-22T11:45:24.977Z,8.20
2019-04-22T11:47:55.265Z,7.97
2019-04-22T11:50:28.072Z,8.57
2019-04-22T11:52:58.562Z,8.83
2019-04-22T11:55:28.891Z,10.37
2019-04-22T11:57:58.992Z,10.27
2019-04-22T12:00:34.758Z,9.87
2019-04-22T12:03:05.408Z,10.60
2019-04-22T12:05:35.146Z,11.83
2019-04-22T12:08:05.097Z,11.20
2019-04-22T12:10:42.747Z,12.03
2019-04-22T12:13:08.110Z,11.67
2019-04-22T12:15:37.940Z,12.37
2019-04-22T12:18:09.223Z,11.13
2019-04-22T12:20:39.251Z,10.40
2019-04-22T12:23:09.483Z,9.10
2019-04-22T12:25:47.615Z,8.67
2019-04-22T12:28:11.162Z,8.30
2019-04-22T12:30:41.747Z,7.87
2019-04-22T12:33:14.767Z,7.23
2019-04-22T12:35:44.232Z,7.07
2019-04-22T12:38:15.257Z,6.50
2019-04-22T12:40:53.187Z,6.63
2019-04-22T12:43:20.244Z,6.23
2019-04-22T12:45:48.144Z,6.30
2019-04-22T12:48:19.089Z,6.67
2019-04-22T12:50:52.120Z,6.00
2019-04-22T12:53:22.566Z,6.87
2019-04-22T12:55:54.902Z,6.27
2019-04-22T12:58:23.569Z,6.70
2019-04-22T13:00:54.578Z,5.83
2019-04-22T13:03:24.580Z,5.67
2019-04-22T13:05:56.159Z,5.20
2019-04-22T13:08:27.509Z,5.47
2019-04-22T13:11:02.959Z,5.53
2019-04-22T13:13:29.049Z,5.47
2019-04-22T13:15:59.390Z,5.33
2019-04-22T13:18:37.502Z,4.93
2019-04-22T13:21:00.466Z,5.30
2019-04-22T13:23:30.102Z,5.07
2019-04-22T13:26:00.942Z,5.50
2019-04-22T13:28:31.500Z,5.00
2019-04-22T13:31:01.957Z,5.30
2019-04-22T13:33:32.906Z,5.23
2019-04-22T13:36:03.756Z,5.37
2019-04-22T13:38:35.251Z,4.93
2019-04-22T13:41:17.299Z,5.03
2019-04-22T13:43:36.708Z,5.30
2019-04-22T13:46:14.373Z,5.93
2019-04-22T13:49:13.185Z,9.00
2019-04-22T13:51:48.356Z,5.60
2019-04-22T13:54:42.405Z,4.90
2019-04-22T13:56:38.811Z,5.00
2019-04-22T13:59:01.860Z,4.83
2019-04-22T14:01:22.947Z,5.13
2019-04-22T14:04:00.789Z,4.80
2019-04-22T14:06:31.098Z,4.37
2019-04-22T14:09:01.142Z,4.80
2019-04-22T14:11:39.046Z,5.07
2019-04-22T14:14:02.846Z,4.13
2019-04-22T14:16:33.158Z,4.80
2019-04-22T14:19:02.817Z,4.93
2019-04-22T14:21:32.713Z,5.37
2019-04-22T14:24:02.705Z,4.70
2019-04-22T14:26:46.868Z,4.87
2019-04-22T14:29:04.163Z,6.00
2019-04-22T14:31:34.495Z,6.37
2019-04-22T14:34:07.339Z,5.70
2019-04-22T14:36:37.131Z,5.80
2019-04-22T14:39:10.284Z,5.40
2019-04-22T14:41:54.811Z,5.60
2019-04-22T14:47:09.137Z,5.40
2019-04-22T14:49:38.298Z,5.20
2019-04-22T14:52:13.609Z,5.07
2019-04-22T14:54:30.952Z,5.60
2019-04-22T14:56:48.522Z,4.70
2019-04-22T14:59:18.906Z,5.20
2019-04-22T15:01:49.785Z,5.20
2019-04-22T15:04:19.707Z,5.77
2019-04-22T15:06:50.355Z,5.10
2019-04-22T15:09:21.722Z,5.07
2019-04-22T15:12:04.893Z,5.30
2019-04-22T15:14:23.349Z,4.90
2019-04-22T15:17:18.693Z,4.73
2019-04-22T15:20:01.624Z,4.83
2019-04-22T15:22:32.624Z,4.63
2019-04-22T15:25:02.983Z,4.93
2019-04-22T15:27:33.182Z,4.40
2019-04-22T15:30:03.603Z,4.90
2019-04-22T15:32:33.589Z,4.80
2019-04-22T15:35:03.214Z,4.80
2019-04-22T15:37:33.229Z,4.47
2019-04-22T15:40:04.616Z,4.80
2019-04-22T15:42:38.331Z,4.70
2019-04-22T15:45:08.644Z,4.63
2019-04-22T15:47:37.830Z,5.07
2019-04-22T15:50:08.089Z,4.60
2019-04-22T15:52:44.510Z,4.70
2019-04-22T15:55:09.212Z,4.70
2019-04-22T15:57:39.873Z,4.60
2019-04-22T16:00:22.804Z,5.23
2019-04-22T16:02:41.703Z,5.90
2019-04-22T16:05:12.760Z,4.90
2019-04-22T16:07:43.954Z,4.83
2019-04-22T16:10:15.772Z,4.50
2019-04-22T16:12:56.090Z,5.03
2019-04-22T16:15:18.541Z,4.47
2019-04-22T16:17:48.821Z,5.03
2019-04-22T16:20:19.276Z,5.53
2019-04-22T16:23:07.763Z,5.03
2019-04-22T16:26:05.497Z,5.47
2019-04-22T16:28:35.421Z,5.13
2019-04-22T16:31:05.316Z,5.83
2019-04-22T16:33:39.969Z,5.63
2019-04-22T16:36:09.030Z,5.73
2019-04-22T16:38:38.780Z,5.17
2019-04-22T16:41:08.589Z,5.63
2019-04-22T16:43:38.404Z,5.93
2019-04-22T16:46:09.650Z,6.20
2019-04-22T16:48:39.950Z,5.77
2019-04-22T16:51:10.020Z,5.90
2019-04-22T16:53:41.068Z,5.50
2019-04-22T16:56:11.042Z,5.80
2019-04-22T16:58:41.048Z,6.17
2019-04-22T17:01:30.552Z,5.77
2019-04-22T17:04:14.526Z,5.97
2019-04-22T17:06:45.594Z,5.63
2019-04-22T17:09:17.641Z,5.50
2019-04-22T17:11:47.959Z,5.90
2019-04-22T17:14:25.308Z,6.37
2019-04-22T17:16:50.502Z,6.20
2019-04-22T17:19:21.643Z,5.80
2019-04-22T17:21:51.399Z,6.07
2019-04-22T17:24:21.667Z,6.03
2019-04-22T17:26:52.597Z,5.97
2019-04-22T17:29:22.793Z,6.70
2019-04-22T17:31:58.249Z,5.67
2019-04-22T17:34:25.370Z,6.20
2019-04-22T17:36:55.361Z,6.00
2019-04-22T17:39:35.614Z,6.23
2019-04-22T17:42:14.057Z,7.07
2019-04-22T17:45:00.368Z,6.70
2019-04-22T17:47:32.969Z,6.30
2019-04-22T17:50:22.426Z,6.53
2019-04-22T17:52:51.041Z,7.47
2019-04-22T17:55:19.589Z,6.87
2019-04-22T17:57:49.511Z,6.10
2019-04-22T18:00:21.848Z,5.00
2019-04-22T18:02:45.747Z,4.63
2019-04-22T18:05:07.372Z,4.60
2019-04-22T18:07:57.371Z,4.80
2019-04-22T18:13:12.031Z,4.40
2019-04-22T18:15:29.427Z,4.30
2019-04-22T18:18:06.891Z,4.13
2019-04-22T18:20:29.278Z,4.80
2019-04-22T18:22:54.300Z,4.43
2019-04-22T18:25:33.885Z,4.63
2019-04-22T18:28:13.481Z,5.10
2019-04-22T18:30:33.348Z,5.27
2019-04-22T18:33:13.009Z,5.17
2019-04-22T18:35:39.386Z,5.13
2019-04-22T18:38:28.257Z,5.17
2019-04-22T18:40:57.335Z,3.97
2019-04-22T18:43:51.795Z,4.50
2019-04-22T18:46:32.552Z,3.77
2019-04-22T18:49:00.606Z,4.10
2019-04-22T18:51:45.362Z,4.03
2019-04-22T18:54:31.083Z,3.93
2019-04-22T18:56:58.772Z,4.30
2019-04-22T18:59:21.288Z,4.10
2019-04-22T19:01:44.362Z,4.17
2019-04-22T19:04:24.314Z,4.37
2019-04-22T19:07:15.261Z,4.67
2019-04-22T19:09:53.284Z,4.23
2019-04-22T19:14:56.703Z,4.20
2019-04-22T19:19:56.214Z,3.97
2019-04-22T19:22:29.892Z,3.90
2019-04-22T19:24:51.729Z,4.03
2019-04-22T19:27:26.606Z,4.33
2019-04-22T19:29:57.812Z,4.10
2019-04-22T19:32:35.096Z,3.83
2019-04-22T19:35:01.581Z,4.37
2019-04-22T19:37:28.375Z,4.07
2019-04-22T19:40:09.616Z,4.17
2019-04-22T19:45:08.299Z,3.80
2019-04-22T19:47:46.499Z,4.50
2019-04-22T19:52:39.843Z,4.10
2019-04-22T19:55:15.713Z,4.20
2019-04-22T19:57:43.418Z,4.60
2019-04-22T20:00:18.469Z,4.37
2019-04-22T20:03:13.244Z,4.40
2019-04-22T20:05:59.441Z,3.93
2019-04-22T20:08:31.178Z,4.37
2019-04-22T20:11:08.575Z,4.63
2019-04-22T20:13:37.188Z,4.30
2019-04-22T20:15:56.112Z,4.50
2019-04-22T20:18:48.341Z,4.27
2019-04-22T20:21:11.926Z,4.63
2019-04-22T20:23:36.395Z,4.67
2019-04-22T20:26:07.563Z,4.40
2019-04-22T20:28:44.661Z,4.40
2019-04-22T20:31:14.121Z,4.17
2019-04-22T20:33:51.321Z,4.33
2019-04-22T20:36:39.419Z,4.47
2019-04-22T20:38:44.963Z,4.10
2019-04-22T20:41:17.120Z,3.87
2019-04-22T20:44:04.963Z,3.70
2019-04-22T20:46:20.495Z,4.33
2019-04-22T20:48:54.866Z,3.63
2019-04-22T20:51:38.443Z,4.40
2019-04-22T20:54:02.092Z,4.20
2019-04-22T20:56:25.651Z,4.33
2019-04-22T20:59:03.948Z,4.80
2019-04-22T21:01:34.421Z,4.57
2019-04-22T21:03:50.610Z,4.37
2019-04-22T21:06:33.559Z,4.50
2019-04-22T21:09:08.887Z,4.83
2019-04-22T21:11:34.010Z,4.93
2019-04-22T21:14:06.004Z,5.03
2019-04-22T21:16:40.867Z,4.70
2019-04-22T21:19:18.884Z,3.90
2019-04-22T21:21:44.985Z,4.10
2019-04-22T21:24:13.986Z,3.80
2019-04-22T21:26:45.372Z,3.60
2019-04-22T21:29:14.619Z,4.27
2019-04-22T21:31:51.207Z,3.93
2019-04-22T21:34:16.139Z,4.07
2019-04-22T21:36:58.201Z,3.53
2019-04-22T21:39:20.533Z,4.40
2019-04-22T21:41:51.442Z,4.10
2019-04-22T21:44:29.069Z,4.27
2019-04-22T21:47:09.021Z,4.50
2019-04-22T21:49:29.688Z,4.43
2019-04-22T21:52:01.642Z,4.17
2019-04-22T21:54:34.261Z,4.50
2019-04-22T21:57:24.661Z,4.30
2019-04-22T21:59:51.090Z,4.27
2019-04-22T22:02:29.634Z,4.07
2019-04-22T22:04:47.383Z,4.10
2019-04-22T22:07:13.570Z,4.03
2019-04-22T22:09:53.806Z,4.10
2019-04-22T22:12:33.711Z,4.00
2019-04-22T22:15:04.168Z,4.40
2019-04-22T22:17:30.728Z,4.50
2019-04-22T22:19:57.800Z,4.00
2019-04-22T22:22:46.606Z,4.67
2019-04-22T22:25:10.495Z,4.40
2019-04-22T22:27:39.331Z,4.33
2019-04-22T22:30:33.513Z,4.33
2019-04-22T22:32:40.182Z,4.67
2019-04-22T22:35:16.192Z,4.47
2019-04-22T22:37:35.938Z,4.67
2019-04-22T22:40:01.208Z,4.90
2019-04-22T22:42:33.761Z,5.00
2019-04-22T22:45:10.305Z,4.50
2019-04-22T22:47:48.745Z,4.70
2019-04-22T22:50:20.379Z,4.50
2019-04-22T22:53:00.965Z,4.33
2019-04-22T22:55:24.987Z,4.50
2019-04-22T22:57:58.364Z,4.97
2019-04-22T23:00:22.318Z,4.40
2019-04-22T23:03:06.802Z,4.97
2019-04-22T23:05:35.905Z,5.00
2019-04-22T23:07:58.745Z,4.97
2019-04-22T23:10:34.128Z,5.17
2019-04-22T23:13:08.495Z,5.37
2019-04-22T23:15:27.546Z,5.10
2019-04-22T23:17:45.725Z,5.30
2019-04-22T23:20:18.583Z,4.50
2019-04-22T23:23:12.321Z,4.93
2019-04-22T23:25:41.546Z,4.70
2019-04-22T23:28:26.652Z,5.33
2019-04-22T23:31:21.160Z,4.83
2019-04-22T23:33:56.129Z,4.47
2019-04-22T23:36:36.814Z,4.73
2019-04-22T23:39:21.533Z,4.73
2019-04-22T23:42:04.823Z,4.70
2019-04-22T23:44:18.391Z,4.57
2019-04-22T23:46:55.359Z,4.50
2019-04-22T23:49:25.341Z,4.30
2019-04-22T23:52:16.168Z,4.57
2019-04-22T23:54:49.655Z,4.77
2019-04-22T23:57:03.204Z,4.40
2019-04-22T23:59:47.870Z,4.43
